Time;durP1;ratioP1;P1;durP2;ratioP2;P2;SDS_P1;SDS_P2;PMS_P1;PMS_P2;Temp;Humidity;BMP_temperature;BMP_pressure;BME280_temperature;BME280_humidity;BME280_pressure;Samples;Min_cycle;Max_cycle;Signal;HPM_P1;HPM_P2
2023/10/30 00:01:37;;;;;;;1.10;1.00;;;12.00;99.90;;;;;;5051463;28;20171;-64
2023/10/30 00:04:02;;;;;;;6.90;1.10;;;11.90;99.90;;;;;;5051437;28;20167;-64
2023/10/30 00:06:29;;;;;;;1.10;1.00;;;12.00;99.90;;;;;;5051162;28;20450;-63
2023/10/30 00:08:55;;;;;;;1.53;0.90;;;11.90;99.90;;;;;;5051372;28;20409;-63
2023/10/30 00:11:20;;;;;;;3.10;1.40;;;11.90;99.90;;;;;;5051393;28;20780;-63
2023/10/30 00:13:46;;;;;;;0.93;0.93;;;11.90;99.90;;;;;;5051215;28;20175;-63
2023/10/30 00:16:11;;;;;;;1.20;1.10;;;11.90;99.90;;;;;;5051341;28;20199;-64
2023/10/30 00:18:41;;;;;;;1.70;1.10;;;11.90;99.90;;;;;;5051068;28;20220;-64
2023/10/30 00:21:07;;;;;;;2.67;1.00;;;12.00;99.90;;;;;;5051080;28;20175;-64
2023/10/30 00:23:33;;;;;;;4.50;0.97;;;12.00;99.90;;;;;;5050979;28;20417;-64
2023/10/30 00:25:59;;;;;;;1.10;0.90;;;11.90;99.90;;;;;;5033033;28;20843;-64
2023/10/30 00:28:27;;;;;;;1.00;0.87;;;11.90;99.90;;;;;;5050917;28;20186;-64
2023/10/30 00:30:53;;;;;;;3.00;1.00;;;11.90;99.90;;;;;;5045977;28;20543;-64
2023/10/30 00:33:19;;;;;;;8.87;1.27;;;12.00;99.90;;;;;;5050350;28;20410;-65
2023/10/30 00:35:44;;;;;;;1.10;0.77;;;12.00;99.90;;;;;;5057106;28;20440;-64
2023/10/30 00:38:10;;;;;;;1.00;0.90;;;12.00;99.90;;;;;;5050403;28;20171;-64
2023/10/30 00:40:36;;;;;;;1.07;0.97;;;12.00;99.90;;;;;;5050773;28;20626;-65
2023/10/30 00:43:01;;;;;;;2.40;0.93;;;12.00;99.90;;;;;;5050319;28;20175;-64
2023/10/30 00:45:27;;;;;;;1.43;0.80;;;12.00;99.90;;;;;;5045972;28;20438;-64
2023/10/30 00:47:53;;;;;;;1.47;0.90;;;12.00;99.90;;;;;;5063807;28;20221;-63
2023/10/30 00:50:19;;;;;;;3.67;2.00;;;12.00;99.90;;;;;;5070567;28;20197;-63
2023/10/30 00:52:44;;;;;;;0.80;0.80;;;11.90;99.90;;;;;;5042451;28;20684;-64
2023/10/30 00:55:10;;;;;;;1.67;1.00;;;12.00;99.90;;;;;;5057378;28;20413;-64
2023/10/30 00:57:35;;;;;;;1.90;1.20;;;11.90;99.90;;;;;;5071274;28;20230;-63
2023/10/30 01:00:01;;;;;;;2.30;1.03;;;11.90;99.90;;;;;;5058537;28;20670;-64
2023/10/30 01:02:27;;;;;;;1.10;0.87;;;11.80;99.90;;;;;;5051088;28;20654;-63
2023/10/30 01:04:52;;;;;;;2.03;0.90;;;11.90;99.90;;;;;;5050072;28;20195;-63
2023/10/30 01:07:18;;;;;;;1.10;0.90;;;12.00;99.90;;;;;;5050264;28;20660;-63
2023/10/30 01:09:44;;;;;;;1.93;1.00;;;12.00;99.90;;;;;;5052746;28;20205;-64
2023/10/30 01:12:09;;;;;;;2.80;1.10;;;12.00;99.90;;;;;;5054651;28;20540;-62
2023/10/30 01:14:35;;;;;;;1.13;0.97;;;11.90;99.90;;;;;;5054353;28;20524;-63
2023/10/30 01:17:01;;;;;;;1.30;0.80;;;12.00;99.90;;;;;;5054401;28;20195;-64
2023/10/30 01:19:26;;;;;;;1.63;1.27;;;12.00;99.90;;;;;;5050023;28;20209;-63
2023/10/30 01:21:52;;;;;;;1.20;1.00;;;12.00;99.90;;;;;;5062321;28;20421;-64
2023/10/30 01:24:18;;;;;;;1.70;1.10;;;12.00;99.90;;;;;;5054368;28;20175;-64
2023/10/30 01:26:44;;;;;;;1.10;1.00;;;11.90;99.90;;;;;;5052516;28;20433;-67
2023/10/30 01:29:10;;;;;;;3.50;1.07;;;11.90;99.90;;;;;;5056475;28;20317;-66
2023/10/30 01:31:35;;;;;;;1.73;1.03;;;12.00;99.90;;;;;;5067475;28;20416;-62
2023/10/30 01:34:01;;;;;;;1.80;1.40;;;12.10;99.90;;;;;;5060280;28;20206;-63
2023/10/30 01:36:26;;;;;;;0.80;0.70;;;12.00;99.90;;;;;;5059576;28;20808;-63
2023/10/30 01:38:52;;;;;;;3.53;1.10;;;12.00;99.90;;;;;;5064612;28;20174;-62
2023/10/30 01:41:18;;;;;;;2.00;0.90;;;12.00;99.90;;;;;;5060548;28;20257;-63
2023/10/30 01:43:43;;;;;;;1.20;0.90;;;12.00;99.90;;;;;;5056965;28;20229;-65
2023/10/30 01:46:09;;;;;;;1.20;0.97;;;12.00;99.90;;;;;;5058045;28;20700;-64
2023/10/30 01:48:36;;;;;;;7.13;1.20;;;11.90;99.90;;;;;;5071935;28;20178;-64
2023/10/30 01:51:04;;;;;;;1.20;0.80;;;11.90;99.90;;;;;;5068467;28;20284;-64
2023/10/30 01:53:32;;;;;;;3.73;1.07;;;12.00;99.90;;;;;;5055094;28;20425;-64
2023/10/30 01:55:59;;;;;;;2.43;0.87;;;11.90;99.90;;;;;;5058496;28;20456;-64
2023/10/30 01:58:28;;;;;;;1.33;1.03;;;12.00;99.90;;;;;;5025614;28;20456;-64
2023/10/30 02:00:57;;;;;;;1.40;0.80;;;12.00;99.90;;;;;;5051110;28;20492;-63
2023/10/30 02:03:23;;;;;;;3.57;0.80;;;12.00;99.90;;;;;;5047427;28;20420;-63
2023/10/30 02:05:51;;;;;;;1.53;0.80;;;12.00;99.90;;;;;;5056413;28;20459;-63
2023/10/30 02:08:17;;;;;;;1.03;0.80;;;12.10;99.90;;;;;;5068439;28;20421;-63
2023/10/30 02:10:43;;;;;;;1.90;1.00;;;12.00;99.90;;;;;;5054092;28;21157;-63
2023/10/30 02:13:09;;;;;;;1.43;1.33;;;12.00;99.90;;;;;;5060964;28;20428;-63
2023/10/30 02:15:35;;;;;;;4.40;1.30;;;11.90;99.90;;;;;;5059459;28;20451;-65
2023/10/30 02:18:01;;;;;;;2.03;1.17;;;11.90;99.90;;;;;;5059759;28;20499;-63
2023/10/30 02:20:27;;;;;;;1.10;1.00;;;12.00;99.90;;;;;;5065877;28;20186;-63
2023/10/30 02:22:52;;;;;;;3.33;1.00;;;11.90;99.90;;;;;;5063584;28;20174;-64
2023/10/30 02:25:19;;;;;;;1.50;1.10;;;11.90;99.90;;;;;;5057612;28;20789;-63
2023/10/30 02:27:45;;;;;;;2.20;0.97;;;11.90;99.90;;;;;;5063527;28;20197;-64
2023/10/30 02:30:13;;;;;;;1.70;0.90;;;11.90;99.90;;;;;;5063791;28;20456;-63
2023/10/30 02:32:44;;;;;;;3.40;1.10;;;11.90;99.90;;;;;;5057001;28;20285;-62
2023/10/30 02:35:19;;;;;;;4.13;2.90;;;11.90;99.90;;;;;;5062931;28;20562;-63
2023/10/30 02:37:45;;;;;;;1.53;1.03;;;11.90;99.90;;;;;;5072563;28;20797;-64
2023/10/30 02:40:11;;;;;;;3.33;1.10;;;11.90;99.90;;;;;;5057385;28;20421;-64
2023/10/30 02:42:37;;;;;;;1.83;1.20;;;11.90;99.90;;;;;;5058809;28;20426;-64
2023/10/30 02:45:03;;;;;;;1.67;1.10;;;12.00;99.90;;;;;;5059513;28;20425;-63
2023/10/30 02:47:30;;;;;;;5.27;1.30;;;12.00;99.90;;;;;;5062979;28;20417;-62
2023/10/30 02:49:56;;;;;;;2.90;1.67;;;11.90;99.90;;;;;;5057294;28;20499;-63
2023/10/30 02:52:21;;;;;;;2.40;1.13;;;12.00;99.90;;;;;;5063161;28;20425;-64
2023/10/30 02:54:47;;;;;;;1.93;1.10;;;12.00;99.90;;;;;;5066081;28;20197;-64
2023/10/30 02:57:15;;;;;;;1.27;0.70;;;11.90;99.90;;;;;;5063602;28;20225;-63
2023/10/30 02:59:41;;;;;;;1.13;1.03;;;11.90;99.90;;;;;;5053455;28;20222;-64
2023/10/30 03:02:07;;;;;;;1.27;1.03;;;11.90;99.90;;;;;;5053513;28;20433;-64
2023/10/30 03:04:34;;;;;;;6.83;1.17;;;11.90;99.90;;;;;;5054783;28;20441;-63
2023/10/30 03:07:00;;;;;;;0.93;0.83;;;11.90;99.90;;;;;;5053943;28;20435;-64
2023/10/30 03:09:32;;;;;;;3.27;0.97;;;11.90;99.90;;;;;;5053736;28;20460;-63
2023/10/30 03:11:58;;;;;;;0.83;0.83;;;11.90;99.90;;;;;;5061378;28;20413;-63
2023/10/30 03:14:24;;;;;;;1.63;1.17;;;11.90;99.90;;;;;;5069422;28;20404;-64
2023/10/30 03:16:50;;;;;;;1.70;1.23;;;11.90;99.90;;;;;;5056795;28;20425;-65
2023/10/30 03:19:16;;;;;;;3.20;1.03;;;11.90;99.90;;;;;;5039090;28;20432;-63
2023/10/30 03:21:42;;;;;;;1.10;0.90;;;11.90;99.90;;;;;;5059266;28;20413;-64
2023/10/30 03:24:08;;;;;;;5.83;1.10;;;11.90;99.90;;;;;;5050101;28;20190;-63
2023/10/30 03:26:33;;;;;;;3.23;1.20;;;11.90;99.90;;;;;;5068748;28;20201;-64
2023/10/30 03:28:59;;;;;;;1.03;0.93;;;11.90;99.90;;;;;;5056706;28;20970;-64
2023/10/30 03:31:25;;;;;;;2.17;1.10;;;11.90;99.90;;;;;;5055562;28;20568;-64
2023/10/30 03:33:50;;;;;;;1.60;1.13;;;11.90;99.90;;;;;;5064215;28;20248;-64
2023/10/30 03:36:20;;;;;;;2.43;1.00;;;11.90;99.90;;;;;;5055895;28;20273;-64
2023/10/30 03:38:46;;;;;;;2.20;0.90;;;11.90;99.90;;;;;;5054120;28;20182;-64
2023/10/30 03:41:12;;;;;;;3.70;1.33;;;11.90;99.90;;;;;;5059125;28;20828;-63
2023/10/30 03:43:37;;;;;;;1.20;1.00;;;11.90;99.90;;;;;;5052334;28;20183;-63
2023/10/30 03:46:04;;;;;;;1.00;0.80;;;11.90;99.90;;;;;;5061854;28;20204;-63
2023/10/30 03:48:30;;;;;;;2.40;1.10;;;11.90;99.90;;;;;;5054992;28;20512;-63
2023/10/30 03:50:55;;;;;;;1.53;1.10;;;12.00;99.90;;;;;;5065486;28;21029;-63
2023/10/30 03:53:21;;;;;;;1.23;0.90;;;12.00;99.90;;;;;;5061072;28;20512;-63
2023/10/30 03:55:47;;;;;;;1.40;1.00;;;12.00;99.90;;;;;;5058602;28;20194;-63
2023/10/30 03:58:12;;;;;;;3.03;1.17;;;11.90;99.90;;;;;;5062877;28;20640;-63
2023/10/30 04:00:38;;;;;;;1.80;0.90;;;11.90;99.90;;;;;;5069139;28;20189;-63
2023/10/30 04:03:03;;;;;;;3.63;0.90;;;11.90;99.90;;;;;;5047992;28;20185;-63
2023/10/30 04:05:29;;;;;;;2.57;1.17;;;11.90;99.90;;;;;;5048776;28;20214;-62
2023/10/30 04:07:55;;;;;;;4.27;1.63;;;11.90;99.90;;;;;;5045979;28;20178;-63
2023/10/30 04:10:21;;;;;;;2.73;0.90;;;11.90;99.90;;;;;;5054382;28;20471;-63
2023/10/30 04:12:46;;;;;;;4.63;1.30;;;11.90;99.90;;;;;;5051955;28;20185;-64
2023/10/30 04:15:12;;;;;;;1.07;0.90;;;11.90;99.90;;;;;;5052271;28;20685;-63
2023/10/30 04:17:38;;;;;;;3.63;1.20;;;11.90;99.90;;;;;;5052223;28;20175;-63
2023/10/30 04:20:04;;;;;;;2.63;1.07;;;11.90;99.90;;;;;;5048635;28;20175;-64
2023/10/30 04:22:29;;;;;;;3.07;1.00;;;11.90;99.90;;;;;;5051393;28;20471;-64
2023/10/30 04:24:55;;;;;;;2.20;1.00;;;11.90;99.90;;;;;;5051354;28;20864;-63
2023/10/30 04:27:21;;;;;;;2.70;0.90;;;12.00;99.90;;;;;;5066733;28;20679;-64
2023/10/30 04:29:47;;;;;;;1.13;0.97;;;11.90;99.90;;;;;;5071276;28;20198;-64
2023/10/30 04:32:12;;;;;;;3.83;1.20;;;11.90;99.90;;;;;;5071386;28;20178;-64
2023/10/30 04:34:38;;;;;;;2.53;0.97;;;11.90;99.90;;;;;;5071273;28;20412;-63
2023/10/30 04:37:05;;;;;;;2.30;1.33;;;11.90;99.90;;;;;;5071706;28;20222;-64
2023/10/30 04:39:30;;;;;;;2.67;1.67;;;11.90;99.90;;;;;;5056789;28;20179;-64
2023/10/30 04:41:56;;;;;;;2.87;1.17;;;11.90;99.90;;;;;;5059255;28;20416;-63
2023/10/30 04:44:22;;;;;;;4.33;2.40;;;11.90;99.90;;;;;;5054948;28;20224;-63
2023/10/30 04:46:48;;;;;;;3.57;0.83;;;11.90;99.90;;;;;;5050987;28;20621;-63
2023/10/30 04:49:14;;;;;;;3.27;1.10;;;11.90;99.90;;;;;;5051167;28;20421;-63
2023/10/30 04:51:39;;;;;;;2.30;0.93;;;11.90;99.90;;;;;;5051084;28;20179;-66
2023/10/30 04:54:05;;;;;;;2.70;1.43;;;11.90;99.90;;;;;;5051214;28;20197;-63
2023/10/30 04:56:31;;;;;;;4.50;1.20;;;11.80;99.90;;;;;;5051178;28;20205;-64
2023/10/30 04:58:56;;;;;;;7.00;1.50;;;11.80;99.90;;;;;;5052534;28;20712;-64
2023/10/30 05:01:22;;;;;;;1.63;1.00;;;11.80;99.90;;;;;;5047106;28;20270;-63
2023/10/30 05:03:47;;;;;;;7.40;1.10;;;11.80;99.90;;;;;;5067172;28;20283;-64
2023/10/30 05:06:13;;;;;;;1.47;1.20;;;11.80;99.90;;;;;;5050786;28;20214;-64
2023/10/30 05:08:39;;;;;;;3.43;1.10;;;11.80;99.90;;;;;;5068299;28;20228;-63
2023/10/30 05:11:04;;;;;;;4.07;1.50;;;11.80;99.90;;;;;;5049739;28;20272;-64
2023/10/30 05:13:30;;;;;;;2.03;1.10;;;11.80;99.90;;;;;;5051227;28;20202;-64
2023/10/30 05:15:58;;;;;;;3.10;1.27;;;11.80;99.90;;;;;;5050314;28;20214;-64
2023/10/30 05:18:26;;;;;;;3.37;1.10;;;11.80;99.90;;;;;;5050629;28;20344;-63
2023/10/30 05:20:51;;;;;;;1.33;1.10;;;11.70;99.90;;;;;;5047905;28;20437;-63
2023/10/30 05:23:17;;;;;;;3.37;1.30;;;11.70;99.90;;;;;;5046949;28;20471;-63
2023/10/30 05:25:43;;;;;;;1.27;1.00;;;11.70;99.90;;;;;;5055884;28;20213;-63
2023/10/30 05:28:09;;;;;;;2.17;1.10;;;11.70;99.90;;;;;;5044159;28;20547;-63
2023/10/30 05:30:35;;;;;;;2.13;1.10;;;11.80;99.90;;;;;;5049328;28;20637;-66
2023/10/30 05:33:01;;;;;;;1.30;1.20;;;11.80;99.90;;;;;;5051058;28;20514;-63
2023/10/30 05:35:27;;;;;;;4.70;1.70;;;11.80;99.90;;;;;;5054104;28;20490;-63
2023/10/30 05:37:53;;;;;;;1.37;1.20;;;11.70;99.90;;;;;;5071086;28;20416;-63
2023/10/30 05:40:20;;;;;;;1.30;1.20;;;11.80;99.90;;;;;;5061468;28;20183;-63
2023/10/30 05:42:46;;;;;;;1.70;1.20;;;11.70;99.90;;;;;;5055824;28;21109;-63
2023/10/30 05:45:11;;;;;;;1.63;1.00;;;11.70;99.90;;;;;;5047442;28;20421;-63
2023/10/30 05:47:37;;;;;;;2.53;1.27;;;11.70;99.90;;;;;;5047192;28;20226;-62
2023/10/30 05:50:03;;;;;;;1.77;1.47;;;11.70;99.90;;;;;;5040767;28;20211;-65
2023/10/30 05:52:29;;;;;;;4.30;1.40;;;11.60;99.90;;;;;;5042576;28;20518;-63
2023/10/30 05:54:54;;;;;;;2.93;1.80;;;11.70;99.90;;;;;;5042185;28;20425;-63
2023/10/30 05:57:20;;;;;;;4.70;1.20;;;11.70;99.90;;;;;;5054318;28;20187;-63
2023/10/30 05:59:45;;;;;;;3.13;1.23;;;11.70;99.90;;;;;;5055580;28;20183;-63
2023/10/30 06:02:11;;;;;;;3.30;1.63;;;11.70;99.90;;;;;;5060221;28;20254;-64
2023/10/30 06:04:37;;;;;;;2.80;1.60;;;11.70;99.90;;;;;;5051109;28;20232;-64
2023/10/30 06:07:03;;;;;;;2.20;1.60;;;11.80;99.90;;;;;;5058500;28;20198;-63
2023/10/30 06:09:28;;;;;;;4.40;1.53;;;11.80;99.90;;;;;;5054246;28;20332;-64
2023/10/30 06:11:54;;;;;;;2.47;1.43;;;11.80;99.90;;;;;;5054188;28;20429;-64
2023/10/30 06:14:19;;;;;;;3.90;1.27;;;11.80;99.90;;;;;;5054156;28;20633;-64
2023/10/30 06:16:45;;;;;;;1.70;1.30;;;11.90;99.90;;;;;;5053791;28;20260;-63
2023/10/30 06:19:11;;;;;;;5.77;1.53;;;11.90;99.90;;;;;;5054020;28;20206;-64
2023/10/30 06:21:40;;;;;;;2.43;1.10;;;11.90;99.90;;;;;;5036401;28;20956;-65
2023/10/30 06:24:07;;;;;;;1.43;1.30;;;11.90;99.90;;;;;;5054163;28;20238;-65
2023/10/30 06:26:32;;;;;;;5.40;1.20;;;12.00;99.90;;;;;;5059493;28;20959;-63
2023/10/30 06:28:58;;;;;;;2.90;1.47;;;12.10;99.90;;;;;;5052617;28;20456;-65
2023/10/30 06:31:23;;;;;;;2.13;1.27;;;12.10;99.90;;;;;;5053767;28;20238;-66
2023/10/30 06:33:49;;;;;;;4.57;1.23;;;12.20;99.90;;;;;;5054077;28;20562;-66
2023/10/30 06:36:15;;;;;;;3.33;1.40;;;12.20;99.90;;;;;;5060617;28;20216;-62
2023/10/30 06:38:40;;;;;;;8.40;3.20;;;12.20;99.90;;;;;;5032697;28;20546;-64
2023/10/30 06:41:06;;;;;;;5.30;2.30;;;12.20;99.90;;;;;;5053313;28;20175;-63
2023/10/30 06:43:33;;;;;;;8.40;1.73;;;12.20;99.90;;;;;;5053723;28;20182;-63
2023/10/30 06:46:03;;;;;;;3.40;1.80;;;12.30;99.90;;;;;;5052389;28;20413;-62
2023/10/30 06:48:28;;;;;;;2.40;1.73;;;12.40;99.90;;;;;;5056135;28;20440;-63
2023/10/30 06:50:55;;;;;;;3.90;1.70;;;12.40;99.90;;;;;;5061464;28;20452;-65
2023/10/30 06:53:21;;;;;;;3.07;1.63;;;12.50;99.90;;;;;;5061359;28;20179;-63
2023/10/30 06:55:46;;;;;;;1.40;1.03;;;12.50;99.90;;;;;;5046966;28;20434;-63
2023/10/30 06:58:12;;;;;;;4.47;1.67;;;12.60;99.90;;;;;;5061983;28;20520;-63
2023/10/30 07:00:38;;;;;;;3.63;1.70;;;12.70;99.90;;;;;;5052136;28;20183;-64
2023/10/30 07:03:04;;;;;;;1.20;1.10;;;12.70;99.90;;;;;;5053016;28;20413;-64
2023/10/30 07:05:29;;;;;;;2.07;1.13;;;12.80;99.90;;;;;;5045183;28;20256;-63
2023/10/30 07:07:55;;;;;;;1.83;1.30;;;12.80;99.90;;;;;;5052687;28;20250;-63
2023/10/30 07:10:21;;;;;;;1.60;1.37;;;12.80;99.90;;;;;;5044101;28;20207;-62
2023/10/30 07:12:47;;;;;;;2.30;1.23;;;12.90;99.90;;;;;;5052500;28;20171;-63
2023/10/30 07:15:13;;;;;;;1.83;1.13;;;13.00;99.90;;;;;;5056006;28;20405;-63
2023/10/30 07:17:38;;;;;;;3.23;1.23;;;13.10;99.90;;;;;;5053012;28;20409;-64
2023/10/30 07:20:04;;;;;;;4.70;1.40;;;13.10;99.90;;;;;;5063142;28;20194;-64
2023/10/30 07:22:30;;;;;;;3.53;1.30;;;13.10;99.90;;;;;;5067597;28;20201;-64
2023/10/30 07:25:00;;;;;;;3.03;1.30;;;13.40;99.90;;;;;;5063407;28;20978;-65
2023/10/30 07:27:25;;;;;;;1.50;1.40;;;13.60;99.90;;;;;;5060835;28;20261;-63
2023/10/30 07:29:52;;;;;;;1.93;1.10;;;13.50;99.90;;;;;;5049825;28;20549;-63
2023/10/30 07:32:17;;;;;;;1.87;1.00;;;13.50;99.90;;;;;;5055742;28;20257;-63
2023/10/30 07:34:44;;;;;;;2.27;1.23;;;13.60;99.90;;;;;;5065419;28;20962;-64
2023/10/30 07:37:10;;;;;;;3.23;1.80;;;13.60;99.90;;;;;;5062781;28;20465;-63
2023/10/30 07:39:35;;;;;;;4.23;1.20;;;13.60;99.90;;;;;;5057847;28;20421;-63
2023/10/30 07:42:01;;;;;;;2.00;1.00;;;13.60;99.90;;;;;;5053955;28;21154;-64
2023/10/30 07:44:27;;;;;;;4.43;1.53;;;13.70;99.90;;;;;;5055029;28;20195;-64
2023/10/30 07:46:53;;;;;;;4.10;1.00;;;13.80;99.90;;;;;;5059489;28;20205;-65
2023/10/30 07:49:19;;;;;;;4.13;1.40;;;13.80;99.90;;;;;;5059404;28;20171;-64
2023/10/30 07:51:45;;;;;;;2.60;1.63;;;13.90;99.90;;;;;;5066382;28;20654;-64
2023/10/30 07:54:11;;;;;;;1.50;1.20;;;13.90;99.90;;;;;;5054983;28;20414;-64
2023/10/30 07:56:37;;;;;;;2.10;1.00;;;14.00;99.90;;;;;;5041488;28;20526;-65
2023/10/30 07:59:06;;;;;;;3.10;1.33;;;14.10;99.90;;;;;;5054662;28;20434;-64
2023/10/30 08:01:33;;;;;;;3.23;1.30;;;14.30;99.90;;;;;;5044178;28;20952;-64
2023/10/30 08:03:59;;;;;;;4.37;1.70;;;14.40;99.90;;;;;;5062836;28;20428;-65
2023/10/30 08:06:25;;;;;;;4.70;1.40;;;14.50;99.90;;;;;;5054132;28;20484;-66
2023/10/30 08:08:52;;;;;;;4.30;1.30;;;14.50;99.90;;;;;;5059457;28;20903;-64
2023/10/30 08:11:17;;;;;;;2.90;1.00;;;14.40;99.90;;;;;;5058876;28;20270;-64
2023/10/30 08:13:43;;;;;;;2.40;1.50;;;14.30;99.90;;;;;;5044587;28;20806;-66
2023/10/30 08:16:10;;;;;;;2.13;1.40;;;14.50;99.90;;;;;;5054805;28;20203;-66
2023/10/30 08:18:36;;;;;;;2.57;1.47;;;14.40;99.90;;;;;;5045034;28;20248;-67
2023/10/30 08:21:01;;;;;;;3.17;1.63;;;14.40;99.90;;;;;;5051631;28;20960;-66
2023/10/30 08:23:27;;;;;;;3.93;1.40;;;14.50;99.90;;;;;;5051715;28;20422;-66
2023/10/30 08:25:53;;;;;;;5.27;2.50;;;14.60;99.90;;;;;;5051413;28;20203;-65
2023/10/30 08:28:19;;;;;;;2.40;1.30;;;14.40;99.90;;;;;;5052187;28;20561;-67
2023/10/30 08:30:45;;;;;;;2.73;1.53;;;14.50;99.90;;;;;;5051662;28;20748;-66
2023/10/30 08:33:10;;;;;;;5.73;2.20;;;14.40;99.90;;;;;;5050237;28;20407;-66
2023/10/30 08:35:36;;;;;;;4.27;1.30;;;14.50;99.90;;;;;;5045375;28;20451;-66
2023/10/30 08:38:03;;;;;;;3.07;1.23;;;14.40;99.90;;;;;;5046224;28;20247;-64
2023/10/30 08:40:29;;;;;;;2.90;1.60;;;14.50;99.90;;;;;;5045016;28;20188;-65
2023/10/30 08:42:54;;;;;;;5.60;2.43;;;14.50;99.90;;;;;;5066889;28;20946;-67
2023/10/30 08:45:21;;;;;;;4.17;2.07;;;14.50;99.90;;;;;;5053875;28;20283;-63
2023/10/30 08:47:47;;;;;;;3.40;1.50;;;14.50;99.90;;;;;;5051192;28;20181;-65
2023/10/30 08:50:12;;;;;;;4.70;1.40;;;14.40;99.90;;;;;;5042081;28;20469;-64
2023/10/30 08:52:39;;;;;;;9.87;1.77;;;14.50;99.90;;;;;;5048304;28;20185;-65
2023/10/30 08:55:06;;;;;;;3.73;1.83;;;14.50;99.90;;;;;;5054004;28;20185;-65
2023/10/30 08:57:32;;;;;;;2.00;1.10;;;14.50;99.90;;;;;;5045224;28;20434;-65
2023/10/30 08:59:58;;;;;;;4.03;1.43;;;14.60;99.90;;;;;;5051763;28;20411;-65
2023/10/30 09:02:24;;;;;;;2.10;1.60;;;14.60;99.90;;;;;;5050999;28;20740;-65
2023/10/30 09:04:51;;;;;;;2.13;1.30;;;14.80;99.90;;;;;;5050936;28;20869;-65
2023/10/30 09:07:17;;;;;;;1.93;1.60;;;14.90;99.90;;;;;;5052760;28;21012;-62
2023/10/30 09:09:43;;;;;;;2.97;1.57;;;15.00;99.90;;;;;;5049406;28;20549;-63
2023/10/30 09:12:09;;;;;;;4.57;1.60;;;15.10;99.90;;;;;;5067187;28;20956;-62
2023/10/30 09:14:35;;;;;;;4.27;1.50;;;15.10;99.90;;;;;;5062042;28;20446;-63
2023/10/30 09:17:02;;;;;;;4.10;1.40;;;15.20;99.90;;;;;;5055622;28;20494;-62
2023/10/30 09:19:28;;;;;;;7.23;1.80;;;15.30;99.90;;;;;;5055879;28;20675;-62
2023/10/30 09:21:54;;;;;;;2.27;1.20;;;15.20;99.90;;;;;;5053346;28;20412;-63
2023/10/30 09:24:21;;;;;;;4.90;1.73;;;15.00;99.90;;;;;;5057184;28;20419;-65
2023/10/30 09:26:47;;;;;;;3.43;1.67;;;15.00;99.90;;;;;;5050620;28;20920;-62
2023/10/30 09:29:12;;;;;;;4.53;1.90;;;15.00;99.90;;;;;;5063899;28;20420;-60
2023/10/30 09:31:38;;;;;;;4.27;1.30;;;15.10;99.90;;;;;;5056319;28;20209;-62
2023/10/30 09:34:03;;;;;;;5.43;1.47;;;15.00;99.90;;;;;;5053242;28;20186;-62
2023/10/30 09:36:30;;;;;;;3.33;1.37;;;15.00;99.90;;;;;;5061131;28;20197;-64
2023/10/30 09:38:56;;;;;;;4.93;1.60;;;15.10;99.90;;;;;;5063439;28;20170;-65
2023/10/30 09:41:22;;;;;;;10.33;2.43;;;15.20;99.90;;;;;;5058571;28;20445;-63
2023/10/30 09:43:49;;;;;;;3.07;1.20;;;15.20;99.90;;;;;;5056057;28;20490;-64
2023/10/30 09:46:16;;;;;;;2.07;1.27;;;15.50;99.90;;;;;;5063534;28;20506;-63
2023/10/30 09:48:48;;;;;;;5.10;2.37;;;15.50;99.90;;;;;;5054320;28;20416;-63
2023/10/30 09:51:15;;;;;;;2.80;1.73;;;15.60;99.90;;;;;;5053243;28;20575;-64
2023/10/30 09:53:42;;;;;;;2.50;1.10;;;15.60;99.90;;;;;;5070612;28;20411;-64
2023/10/30 09:56:09;;;;;;;1.93;1.23;;;15.70;99.90;;;;;;5051034;28;20486;-64
2023/10/30 09:58:38;;;;;;;3.70;1.60;;;15.80;99.90;;;;;;5051348;28;20433;-65
2023/10/30 10:01:04;;;;;;;2.90;1.17;;;15.90;99.90;;;;;;5053964;28;20421;-64
2023/10/30 10:03:31;;;;;;;2.00;1.30;;;15.90;99.90;;;;;;5050262;28;20432;-64
2023/10/30 10:05:58;;;;;;;4.33;1.37;;;16.00;99.90;;;;;;5054831;28;20468;-65
2023/10/30 10:08:24;;;;;;;4.40;1.10;;;15.80;99.90;;;;;;5050247;28;20427;-63
2023/10/30 10:10:54;;;;;;;2.33;1.50;;;15.70;99.90;;;;;;5064740;28;20469;-63
2023/10/30 10:13:19;;;;;;;3.20;1.23;;;15.60;99.90;;;;;;5062783;28;20412;-63
2023/10/30 10:15:45;;;;;;;4.13;1.60;;;15.80;99.90;;;;;;5055979;28;20992;-64
2023/10/30 10:18:24;;;;;;;3.23;1.47;;;15.70;99.90;;;;;;5066081;28;20178;-64
2023/10/30 10:21:08;;;;;;;4.27;1.67;;;15.80;99.90;;;;;;5062546;28;20180;-65
2023/10/30 10:23:34;;;;;;;4.60;1.40;;;15.90;99.90;;;;;;5056415;28;20429;-64
2023/10/30 10:26:03;;;;;;;4.10;1.63;;;16.00;99.90;;;;;;5056371;28;20700;-64
2023/10/30 10:28:29;;;;;;;8.93;1.77;;;15.90;99.90;;;;;;5066058;28;20426;-64
2023/10/30 10:30:55;;;;;;;3.77;1.67;;;16.00;99.90;;;;;;5056078;28;20552;-64
2023/10/30 10:33:22;;;;;;;4.80;2.27;;;16.10;99.90;;;;;;5058906;28;20530;-64
2023/10/30 10:36:01;;;;;;;1.73;1.37;;;16.30;99.90;;;;;;5063107;28;20428;-64
2023/10/30 10:38:27;;;;;;;9.17;3.37;;;16.50;99.90;;;;;;5047395;28;20429;-64
2023/10/30 10:40:55;;;;;;;2.53;1.43;;;16.40;99.90;;;;;;5072055;28;20432;-64
2023/10/30 10:43:22;;;;;;;4.60;1.90;;;16.20;99.90;;;;;;5049992;28;20421;-64
2023/10/30 10:45:50;;;;;;;7.67;1.67;;;16.40;99.90;;;;;;5058592;28;20449;-63
2023/10/30 10:48:17;;;;;;;1.90;1.27;;;16.30;99.90;;;;;;5052534;28;20786;-63
2023/10/30 10:50:44;;;;;;;4.13;1.33;;;16.20;99.90;;;;;;5055451;28;20468;-64
2023/10/30 10:53:11;;;;;;;2.93;1.63;;;16.10;99.90;;;;;;5053565;28;20464;-64
2023/10/30 10:55:48;;;;;;;5.27;1.60;;;16.00;99.90;;;;;;5068279;28;20965;-63
2023/10/30 10:58:17;;;;;;;4.70;2.30;;;16.30;99.90;;;;;;5059670;28;20425;-63
2023/10/30 11:00:50;;;;;;;1.70;1.40;;;16.10;99.90;;;;;;5053317;28;21010;-67
2023/10/30 11:03:17;;;;;;;3.57;1.33;;;15.90;99.90;;;;;;5065204;28;20420;-67
2023/10/30 11:05:45;;;;;;;3.07;1.63;;;15.90;99.90;;;;;;5062713;28;20825;-65
2023/10/30 11:08:28;;;;;;;2.90;2.23;;;15.70;99.90;;;;;;5062927;28;20780;-65
2023/10/30 11:11:07;;;;;;;2.30;1.23;;;15.60;99.90;;;;;;5057946;28;20551;-64
2023/10/30 11:14:04;;;;;;;3.03;1.33;;;15.50;99.90;;;;;;5049460;28;20871;-66
2023/10/30 11:16:59;;;;;;;2.93;1.20;;;15.50;99.90;;;;;;5045286;28;20583;-64
2023/10/30 11:19:26;;;;;;;4.43;1.50;;;15.60;99.90;;;;;;5052175;28;20428;-66
2023/10/30 11:21:51;;;;;;;3.90;1.50;;;15.70;99.90;;;;;;5051799;28;20566;-68
2023/10/30 11:24:39;;;;;;;10.33;1.63;;;15.70;99.90;;;;;;5051444;28;20449;-66
2023/10/30 11:27:26;;;;;;;6.93;1.50;;;15.70;99.90;;;;;;5054939;28;20196;-64
2023/10/30 11:29:57;;;;;;;2.70;1.40;;;15.70;99.90;;;;;;5061922;28;20504;-65
2023/10/30 11:32:27;;;;;;;6.10;1.50;;;15.80;99.90;;;;;;5055770;28;21083;-65
2023/10/30 11:34:53;;;;;;;2.73;1.63;;;15.60;99.90;;;;;;5056565;28;20864;-65
2023/10/30 11:37:23;;;;;;;4.17;1.70;;;15.60;99.90;;;;;;5052752;28;20442;-65
2023/10/30 11:39:49;;;;;;;4.40;1.20;;;15.50;99.90;;;;;;5055362;28;20234;-64
2023/10/30 11:42:24;;;;;;;4.00;1.40;;;15.70;99.90;;;;;;5042048;28;20943;-64
2023/10/30 11:44:50;;;;;;;4.77;1.70;;;15.70;99.90;;;;;;5051444;28;20958;-64
2023/10/30 11:47:20;;;;;;;4.73;1.73;;;15.70;99.90;;;;;;5044676;28;20463;-64
2023/10/30 11:49:45;;;;;;;2.40;1.10;;;15.60;99.90;;;;;;5049559;28;20543;-64
2023/10/30 11:52:13;;;;;;;6.57;2.43;;;15.50;99.90;;;;;;5051382;28;20494;-64
2023/10/30 11:54:44;;;;;;;5.50;1.33;;;15.40;99.90;;;;;;5050543;28;20269;-63
2023/10/30 11:57:10;;;;;;;4.20;1.30;;;15.40;99.90;;;;;;5033514;28;20432;-63
2023/10/30 11:59:36;;;;;;;5.50;1.73;;;15.40;99.90;;;;;;5064922;28;20466;-66
2023/10/30 12:02:04;;;;;;;3.63;1.50;;;15.30;99.90;;;;;;5050195;28;20418;-64
2023/10/30 12:04:32;;;;;;;2.13;1.73;;;15.20;99.90;;;;;;5048172;28;20807;-65
2023/10/30 12:06:58;;;;;;;2.93;1.30;;;15.30;99.90;;;;;;5062746;28;20801;-64
2023/10/30 12:09:25;;;;;;;8.57;2.20;;;15.30;99.90;;;;;;5051602;28;20425;-64
2023/10/30 12:11:52;;;;;;;3.63;1.30;;;15.30;99.90;;;;;;5050795;28;20191;-63
2023/10/30 12:14:19;;;;;;;2.47;1.33;;;15.30;99.90;;;;;;5049974;28;20535;-63
2023/10/30 12:16:52;;;;;;;3.60;1.30;;;15.40;99.90;;;;;;5047149;28;20456;-63
2023/10/30 12:19:21;;;;;;;1.97;1.13;;;15.50;99.90;;;;;;5048817;28;20627;-63
2023/10/30 12:21:48;;;;;;;4.20;1.50;;;15.50;99.90;;;;;;5060629;28;20416;-63
2023/10/30 12:24:17;;;;;;;3.50;1.10;;;15.60;99.90;;;;;;5033622;28;20433;-64
2023/10/30 12:26:44;;;;;;;1.80;1.20;;;15.60;99.90;;;;;;5049219;28;20432;-65
2023/10/30 12:29:10;;;;;;;3.90;1.70;;;15.50;99.90;;;;;;5052927;28;20451;-64
2023/10/30 12:31:36;;;;;;;3.53;1.47;;;15.50;99.90;;;;;;5051277;28;20462;-65
2023/10/30 12:34:09;;;;;;;5.47;1.60;;;15.40;99.90;;;;;;5049090;28;20432;-64
2023/10/30 12:36:35;;;;;;;2.83;1.20;;;15.40;99.90;;;;;;5048968;28;20454;-64
2023/10/30 12:39:11;;;;;;;6.00;1.80;;;15.60;99.90;;;;;;5046496;28;20432;-63
2023/10/30 12:41:37;;;;;;;2.80;1.40;;;15.60;99.90;;;;;;5051647;28;20436;-63
2023/10/30 12:44:03;;;;;;;3.10;1.50;;;15.50;99.90;;;;;;5057082;28;20425;-64
2023/10/30 12:46:28;;;;;;;3.37;1.53;;;15.30;99.90;;;;;;5061986;28;20263;-64